Time;durP1;ratioP1;P1;durP2;ratioP2;P2;SDS_P1;SDS_P2;PMS_P1;PMS_P2;Temp;Humidity;BMP_temperature;BMP_pressure;BME280_temperature;BME280_humidity;BME280_pressure;Samples;Min_cycle;Max_cycle;Signal;HPM_P1;HPM_P2
2022/06/16 00:02:46;;;;;;;15.65;4.78;;;;;;;30.67;52.99;97172.94;4851181;29;20054;-66
2022/06/16 00:05:38;;;;;;;20.48;5.10;;;;;;;30.70;49.51;97183.97;4851489;29;20053;-66
2022/06/16 00:08:21;;;;;;;16.17;5.03;;;;;;;30.74;50.47;97179.84;4825036;29;20538;-66
2022/06/16 00:11:16;;;;;;;12.80;4.78;;;;;;;30.67;50.64;97176.41;4851049;29;20057;-66
2022/06/16 00:13:58;;;;;;;12.63;4.63;;;;;;;30.70;50.29;97178.66;4851509;29;20576;-66
2022/06/16 00:16:47;;;;;;;18.02;4.32;;;;;;;30.67;49.93;97178.25;4851407;29;20064;-67
2022/06/16 00:19:36;;;;;;;14.32;5.25;;;;;;;30.65;50.41;97175.78;4852941;29;20057;-66
2022/06/16 00:22:25;;;;;;;21.05;4.78;;;;;;;30.67;50.07;97179.06;4871489;29;20473;-66
2022/06/16 00:25:14;;;;;;;18.17;4.78;;;;;;;30.68;49.83;97185.19;4874423;29;20061;-66
2022/06/16 00:28:03;;;;;;;13.93;4.63;;;;;;;30.72;50.77;97197.88;4873461;29;20072;-66
2022/06/16 00:30:45;;;;;;;13.30;4.78;;;;;;;30.67;53.13;97212.81;4871505;29;20053;-67
2022/06/16 00:33:34;;;;;;;13.38;4.65;;;;;;;30.67;51.16;97220.78;4843953;29;20061;-66
2022/06/16 00:36:17;;;;;;;23.23;4.53;;;;;;;30.74;51.66;97233.03;4853571;29;20140;-67
2022/06/16 00:39:06;;;;;;;19.25;4.45;;;;;;;30.76;51.96;97236.31;4869765;29;20060;-65
2022/06/16 00:41:48;;;;;;;19.30;5.45;;;;;;;30.71;52.18;97248.63;4873233;29;20055;-65
2022/06/16 00:44:37;;;;;;;19.98;7.28;;;;;;;30.51;54.78;97231.88;4854654;29;20125;-66
2022/06/16 00:47:29;;;;;;;20.98;5.53;;;;;;;30.22;55.45;97217.16;4847856;29;20057;-66
2022/06/16 00:50:13;;;;;;;15.45;5.25;;;;;;;29.97;55.79;97225.75;4853322;29;20231;-66
2022/06/16 00:53:02;;;;;;;15.57;4.88;;;;;;;30.07;55.90;97254.59;4854657;29;20057;-66
2022/06/16 00:55:44;;;;;;;21.17;5.28;;;;;;;30.21;56.03;97261.53;4853003;29;20067;-66
2022/06/16 00:58:40;;;;;;;13.63;5.18;;;;;;;30.14;57.23;97265.22;4853671;29;20064;-66
2022/06/16 01:01:26;;;;;;;16.00;5.25;;;;;;;30.10;57.63;97254.16;4852829;29;20801;-66
2022/06/16 01:07:20;;;;;;;20.38;5.18;;;;;;;30.05;57.00;97249.47;4853879;29;20061;-67
2022/06/16 01:10:10;;;;;;;27.53;5.43;;;;;;;30.10;58.14;97250.69;4854250;29;20072;-66
2022/06/16 01:16:33;;;;;;;21.30;5.57;;;;;;;30.24;56.56;97273.59;4852828;29;20057;-66
2022/06/16 01:19:37;;;;;;;21.33;5.63;;;;;;;30.25;56.29;97267.25;4834033;29;20062;-66
2022/06/16 01:22:36;;;;;;;24.05;6.47;;;;;;;30.31;55.89;97269.09;4849099;29;20122;-66
2022/06/16 01:26:00;;;;;;;28.50;5.82;;;;;;;30.42;55.51;97271.13;4862342;29;20427;-66
2022/06/16 01:29:05;;;;;;;23.10;5.97;;;;;;;30.49;55.00;97273.78;4867428;29;20046;-66
2022/06/16 01:31:54;;;;;;;;;;;;;;;30.55;56.50;97289.75;4867688;29;20513;-66
2022/06/16 01:34:46;;;;;;;19.35;5.20;;;;;;;30.74;54.24;97302.19;4852639;29;19928;-65
2022/06/16 01:37:37;;;;;;;22.42;4.90;;;;;;;30.92;54.33;97308.72;4851891;29;20046;-65
2022/06/16 01:40:23;;;;;;;16.85;5.80;;;;;;;30.87;54.50;97305.88;4864461;29;20064;-66
2022/06/16 01:43:30;;;;;;;19.77;5.35;;;;;;;30.99;53.19;97306.84;4867621;29;20482;-66
2022/06/16 01:46:21;;;;;;;24.17;5.43;;;;;;;31.02;54.07;97309.09;4836334;29;20096;-66
2022/06/16 01:49:22;;;;;;;12.20;4.28;;;;;;;31.26;53.95;97311.09;4843302;29;20057;-66
2022/06/16 01:52:13;;;;;;;18.08;5.13;;;;;;;31.52;54.30;97327.00;4867709;29;20144;-66
2022/06/16 01:55:09;;;;;;;20.70;7.05;;;;;;;31.76;52.52;97319.31;4867037;29;20053;-66
2022/06/16 01:58:10;;;;;;;18.98;5.30;;;;;;;32.07;51.04;97334.50;4853026;29;20053;-66
2022/06/16 02:01:00;;;;;;;19.42;5.00;;;;;;;32.36;52.63;97330.41;4836483;29;20046;-66
2022/06/16 02:03:57;;;;;;;21.95;4.60;;;;;;;32.44;48.80;97335.47;4867061;29;20533;-66
2022/06/16 02:06:43;;;;;;;29.15;5.38;;;;;;;32.40;49.81;97335.13;4853018;29;20049;-66
2022/06/16 02:09:41;;;;;;;26.20;6.57;;;;;;;32.57;49.23;97352.19;4867009;29;20053;-65
2022/06/16 02:15:51;;;;;;;17.23;4.15;;;;;;;33.23;46.61;97381.00;4865026;29;20046;-66
2022/06/16 02:18:38;;;;;;;30.50;5.45;;;;;;;33.34;46.03;97385.59;4863317;29;20069;-65
2022/06/16 02:21:45;;;;;;;19.02;4.45;;;;;;;33.33;44.91;97399.19;4850868;29;20112;-66
2022/06/16 02:24:27;;;;;;;27.92;5.32;;;;;;;33.32;45.15;97398.34;4860147;29;20053;-66
2022/06/16 02:27:22;;;;;;;29.05;5.43;;;;;;;33.62;45.35;97409.13;4849716;29;20050;-67
2022/06/16 02:30:11;;;;;;;20.67;4.18;;;;;;;33.74;44.02;97420.72;4830823;29;20060;-67
2022/06/16 02:33:23;;;;;;;20.25;3.45;;;;;;;34.11;44.82;97432.19;4833872;29;20049;-66
2022/06/16 02:36:37;;;;;;;24.20;5.35;;;;;;;33.80;44.47;97438.53;4833217;29;20046;-67
2022/06/16 02:39:54;;;;;;;26.75;4.25;;;;;;;33.82;43.93;97440.16;4800903;29;20145;-67
2022/06/16 02:42:42;;;;;;;25.17;5.50;;;;;;;33.94;44.61;97439.19;4830958;29;20122;-67
2022/06/16 02:45:44;;;;;;;27.40;4.25;;;;;;;34.26;44.66;97431.78;4847515;29;20053;-67
2022/06/16 02:48:41;;;;;;;26.52;3.40;;;;;;;34.38;44.48;97439.88;4856449;29;20068;-67
2022/06/16 02:51:42;;;;;;;17.67;3.97;;;;;;;34.44;43.07;97429.06;4835524;29;20092;-66
2022/06/16 02:54:50;;;;;;;20.63;3.22;;;;;;;34.08;42.71;97440.63;4851718;29;20049;-67
2022/06/16 02:58:02;;;;;;;26.85;4.63;;;;;;;34.35;43.08;97446.47;4827869;29;20490;-67
2022/06/16 03:00:56;;;;;;;17.30;3.97;;;;;;;34.33;42.36;97459.25;4851045;29;20053;-67
2022/06/16 03:03:45;;;;;;;15.90;4.05;;;;;;;34.46;42.51;97464.44;4851617;29;20061;-67
2022/06/16 03:06:27;;;;;;;13.20;3.30;;;;;;;34.75;42.53;97473.50;4852012;29;20057;-66
2022/06/16 03:09:17;;;;;;;25.15;3.83;;;;;;;34.37;42.72;97476.50;4866328;29;20060;-65
2022/06/16 03:11:59;;;;;;;13.57;4.22;;;;;;;34.88;42.25;97491.25;4821161;29;20754;-67
2022/06/16 03:14:49;;;;;;;45.35;4.25;;;;;;;35.05;40.82;97500.22;4843929;29;20148;-66
2022/06/16 03:17:33;;;;;;;16.23;3.47;;;;;;;35.07;41.83;97498.13;4832323;29;20233;-66
2022/06/16 03:20:23;;;;;;;18.23;5.07;;;;;;;34.99;43.60;97493.09;4829984;29;20057;-67
2022/06/16 03:23:19;;;;;;;23.02;3.95;;;;;;;35.24;41.81;97482.22;4833516;29;20053;-66
2022/06/16 03:26:08;;;;;;;24.20;3.65;;;;;;;35.00;42.03;97480.53;4837257;29;20072;-67
2022/06/16 03:29:08;;;;;;;25.08;4.28;;;;;;;35.46;43.46;97487.81;4835291;29;20084;-67
2022/06/16 03:31:58;;;;;;;17.67;3.72;;;;;;;35.38;43.74;97499.69;4850659;29;20049;-67
2022/06/16 03:34:40;;;;;;;18.85;4.75;;;;;;;34.71;45.06;97503.63;4851601;29;20081;-66
2022/06/16 03:37:29;;;;;;;19.40;4.95;;;;;;;34.80;44.21;97495.03;4851549;29;20057;-66
2022/06/16 03:40:22;;;;;;;21.83;5.57;;;;;;;34.85;45.16;97495.19;4850217;29;20049;-67
2022/06/16 03:43:06;;;;;;;30.55;6.70;;;;;;;35.11;45.39;97499.31;4851433;29;20431;-66
2022/06/16 03:45:58;;;;;;;31.65;5.50;;;;;;;35.00;45.37;97502.78;4834095;29;20061;-66
2022/06/16 03:48:41;;;;;;;23.80;4.93;;;;;;;34.63;46.30;97510.13;4850913;29;20346;-67
2022/06/16 03:51:45;;;;;;;16.98;5.55;;;;;;;34.53;45.83;97502.63;4848736;29;20432;-67
2022/06/16 03:54:35;;;;;;;21.55;5.00;;;;;;;34.46;45.62;97506.44;4843256;29;20057;-66
2022/06/16 03:57:25;;;;;;;14.43;4.53;;;;;;;34.73;46.07;97507.72;4849239;29;20514;-66
2022/06/16 04:00:09;;;;;;;22.15;4.78;;;;;;;35.06;45.38;97506.38;4869138;29;20059;-67
2022/06/16 04:06:17;;;;;;;20.85;4.22;;;;;;;35.46;46.34;97515.41;4853870;29;20054;-68
2022/06/16 04:09:07;;;;;;;18.85;4.68;;;;;;;34.43;46.36;97518.41;4868997;29;20125;-68
2022/06/16 04:11:49;;;;;;;21.48;5.63;;;;;;;35.55;45.78;97518.56;4853638;29;20063;-67
2022/06/16 04:14:40;;;;;;;15.88;4.20;;;;;;;35.36;43.95;97503.69;4853664;29;20060;-68
2022/06/16 04:17:25;;;;;;;19.85;4.68;;;;;;;35.07;43.91;97503.47;4868413;29;20057;-67
2022/06/16 04:20:30;;;;;;;11.65;4.03;;;;;;;35.61;42.90;97510.41;4853676;29;20775;-67
2022/06/16 04:23:34;;;;;;;18.77;4.15;;;;;;;35.61;43.95;97509.59;4853137;29;20068;-68
2022/06/16 04:26:25;;;;;;;15.20;4.68;;;;;;;35.75;41.74;97505.66;4855598;29;20068;-67
2022/06/16 04:29:17;;;;;;;15.27;3.60;;;;;;;35.89;42.19;97517.75;4863973;29;20081;-67
2022/06/16 04:32:05;;;;;;;18.40;3.38;;;;;;;35.46;42.26;97514.59;4854079;29;20045;-67
2022/06/16 04:34:55;;;;;;;11.35;3.50;;;;;;;35.64;42.87;97514.50;4853386;29;20054;-67
2022/06/16 04:37:47;;;;;;;11.65;3.50;;;;;;;35.95;41.96;97511.44;4826750;29;20050;-67
2022/06/16 04:40:38;;;;;;;19.35;2.78;;;;;;;36.02;40.57;97514.81;4834535;29;20123;-67
2022/06/16 04:43:23;;;;;;;19.27;3.58;;;;;;;35.75;41.25;97511.03;4828598;29;20474;-66
2022/06/16 04:46:13;;;;;;;20.35;3.38;;;;;;;36.02;40.27;97520.19;4850080;29;20121;-67
2022/06/16 04:49:04;;;;;;;18.77;4.47;;;;;;;36.31;41.04;97521.09;4863665;29;20484;-68
2022/06/16 04:51:52;;;;;;;13.93;3.75;;;;;;;35.72;40.69;97506.13;4868418;29;20060;-68
2022/06/16 04:54:44;;;;;;;18.92;3.40;;;;;;;36.29;39.93;97500.91;4853869;29;20050;-68
2022/06/16 04:57:45;;;;;;;12.95;3.08;;;;;;;36.13;39.89;97491.69;4854250;29;20492;-68
2022/06/16 05:00:54;;;;;;;16.63;2.90;;;;;;;35.92;39.47;97492.34;4853043;29;20061;-68
2022/06/16 05:04:30;;;;;;;19.58;3.30;;;;;;;36.25;40.55;97489.00;4835705;29;20053;-68
2022/06/16 05:07:32;;;;;;;14.77;2.97;;;;;;;36.89;38.57;97495.84;4840541;29;20140;-68
2022/06/16 05:10:52;;;;;;;9.32;2.72;;;;;;;35.96;38.59;97496.19;4850010;29;20206;-67
2022/06/16 05:13:48;;;;;;;14.20;3.17;;;;;;;36.62;40.14;97494.81;4849617;29;20385;-68
2022/06/16 05:16:45;;;;;;;18.45;3.42;;;;;;;36.42;37.85;97485.31;4849646;29;20046;-69
2022/06/16 05:19:53;;;;;;;17.35;3.00;;;;;;;36.50;38.23;97484.13;4835271;29;20060;-65
2022/06/16 05:22:54;;;;;;;26.80;3.78;;;;;;;36.83;40.08;97477.19;4821345;29;20053;-70
2022/06/16 05:26:03;;;;;;;18.90;3.38;;;;;;;36.36;39.29;97466.69;4845040;29;20069;-69
2022/06/16 05:29:21;;;;;;;20.33;3.80;;;;;;;36.94;39.73;97455.66;4848395;29;20061;-69
2022/06/16 05:32:30;;;;;;;20.15;3.92;;;;;;;37.06;38.07;97451.00;4867982;29;20069;-67
2022/06/16 05:35:28;;;;;;;10.77;3.13;;;;;;;37.46;39.62;97453.50;4852715;29;20086;-68
2022/06/16 05:38:54;;;;;;;23.48;3.40;;;;;;;36.94;37.93;97449.47;4796095;29;20195;-68
2022/06/16 05:41:54;;;;;;;16.77;3.67;;;;;;;36.39;38.57;97448.25;4781201;29;20183;-69
2022/06/16 05:44:59;;;;;;;23.40;3.58;;;;;;;37.14;39.53;97449.78;4832235;29;20676;-69
2022/06/16 05:48:02;;;;;;;;;;;;;;;36.70;37.70;97443.44;4861078;29;20056;-68
2022/06/16 05:50:44;;;;;;;11.23;2.90;;;;;;;37.12;38.91;97441.94;4870905;29;19939;-70
2022/06/16 05:53:34;;;;;;;17.80;4.10;;;;;;;37.01;37.14;97455.47;4884119;29;20063;-68
2022/06/16 05:56:30;;;;;;;11.73;3.30;;;;;;;37.19;36.97;97451.75;4885855;29;20049;-69
2022/06/16 05:59:19;;;;;;;18.80;4.22;;;;;;;37.13;37.58;97454.34;4886231;29;20724;-68
2022/06/16 06:02:03;;;;;;;17.50;3.05;;;;;;;37.43;37.43;97451.31;4886962;29;20067;-69
2022/06/16 06:04:51;;;;;;;30.88;4.28;;;;;;;37.15;36.79;97449.56;4886338;29;20048;-68
2022/06/16 06:16:53;;;;;;;14.98;3.80;;;;;;;37.57;38.23;97437.50;4860053;29;20049;-68
2022/06/16 06:19:36;;;;;;;18.30;3.50;;;;;;;37.42;38.02;97430.88;4836508;29;20136;-69
2022/06/16 06:22:29;;;;;;;16.35;3.70;;;;;;;37.55;38.43;97429.69;4866777;29;20061;-69
2022/06/16 06:25:30;;;;;;;15.75;3.10;;;;;;;37.72;37.77;97424.28;4866865;29;20140;-68
2022/06/16 06:28:25;;;;;;;24.77;3.60;;;;;;;37.63;38.56;97415.84;4851674;29;20058;-69
2022/06/16 06:31:07;;;;;;;15.38;3.58;;;;;;;37.50;36.88;97427.75;4869554;29;20141;-70
2022/06/16 06:33:56;;;;;;;18.08;3.88;;;;;;;37.53;36.90;97427.25;4852450;29;20046;-70
2022/06/16 06:36:38;;;;;;;17.80;3.65;;;;;;;37.45;36.83;97426.84;4836041;29;20042;-70
2022/06/16 06:39:28;;;;;;;21.95;3.85;;;;;;;37.75;37.87;97413.88;4851953;29;20085;-70
2022/06/16 06:42:18;;;;;;;18.08;3.40;;;;;;;37.74;39.15;97419.47;4852178;29;20141;-68
2022/06/16 06:45:08;;;;;;;18.15;5.50;;;;;;;37.37;39.94;97421.91;4851965;29;20080;-68
2022/06/16 06:47:51;;;;;;;16.45;4.00;;;;;;;37.34;38.77;97404.44;4852134;29;20047;-69
2022/06/16 06:50:43;;;;;;;18.65;4.78;;;;;;;37.59;37.60;97420.13;4854459;29;20469;-68
2022/06/16 06:53:38;;;;;;;18.75;3.90;;;;;;;37.66;38.43;97414.53;4852215;29;20057;-69
2022/06/16 06:56:14;;;;;;;23.95;4.40;;;;;;;37.58;38.05;97413.06;4852266;29;20380;-69
2022/06/16 06:59:05;;;;;;;;;;;;;;;37.65;39.10;97421.78;4867394;29;20115;-69
2022/06/16 07:01:57;;;;;;;32.13;5.18;;;;;;;37.71;38.97;97409.22;4852509;29;20101;-70
2022/06/16 07:04:40;;;;;;;26.25;4.60;;;;;;;37.84;39.25;97406.13;4852198;29;20564;-69
2022/06/16 07:07:31;;;;;;;25.58;5.40;;;;;;;37.34;38.74;97400.91;4864036;29;20693;-69
2022/06/16 07:10:14;;;;;;;20.75;4.72;;;;;;;37.53;40.88;97400.38;4865756;29;20057;-70
2022/06/16 07:13:02;;;;;;;21.63;3.67;;;;;;;37.47;38.82;97395.19;4866088;29;20474;-69
2022/06/16 07:15:45;;;;;;;;;;;;;;;37.71;40.91;97401.16;4850970;29;20060;-70
2022/06/16 07:18:33;;;;;;;21.60;4.88;;;;;;;37.59;39.63;97395.91;4852290;29;19928;-70
2022/06/16 07:21:22;;;;;;;22.08;4.72;;;;;;;38.04;38.99;97389.44;4851523;29;20080;-70
2022/06/16 07:24:12;;;;;;;23.55;5.25;;;;;;;37.53;38.98;97394.16;4850635;29;20477;-69
2022/06/16 07:26:54;;;;;;;25.15;4.80;;;;;;;37.39;40.84;97396.41;4852364;29;20121;-70
2022/06/16 07:29:43;;;;;;;34.78;5.32;;;;;;;37.13;41.75;97391.75;4853106;29;20057;-70
2022/06/16 07:32:38;;;;;;;30.80;4.95;;;;;;;37.40;42.82;97392.69;4857932;29;20049;-69
2022/06/16 07:35:28;;;;;;;28.98;4.55;;;;;;;37.54;40.95;97395.81;4854515;29;20071;-69
2022/06/16 07:38:20;;;;;;;30.25;4.88;;;;;;;37.54;41.23;97385.84;4855122;29;20180;-69
2022/06/16 07:44:15;;;;;;;27.63;5.10;;;;;;;37.82;41.22;97382.22;4855082;29;20057;-68
2022/06/16 07:46:57;;;;;;;40.08;4.95;;;;;;;37.66;41.04;97376.91;4855400;29;20061;-68
2022/06/16 07:49:49;;;;;;;32.13;4.70;;;;;;;37.53;41.53;97373.47;4854990;29;20057;-68
2022/06/16 07:52:37;;;;;;;19.38;5.35;;;;;;;37.64;41.36;97370.94;4853998;29;20129;-68
2022/06/16 07:55:20;;;;;;;30.40;4.97;;;;;;;37.89;41.76;97373.94;4854556;29;20416;-67
2022/06/16 07:58:15;;;;;;;39.75;5.93;;;;;;;37.55;42.44;97375.91;4854416;29;20175;-68
2022/06/16 08:00:51;;;;;;;31.80;6.50;;;;;;;37.69;41.72;97376.38;4854554;29;20141;-68
2022/06/16 08:03:46;;;;;;;32.13;7.00;;;;;;;37.67;41.81;97367.78;4853645;29;20070;-69
2022/06/16 08:06:26;;;;;;;28.30;4.70;;;;;;;37.70;42.30;97360.00;4854147;29;20153;-69
2022/06/16 08:09:21;;;;;;;34.47;5.30;;;;;;;37.40;41.63;97341.59;4857198;29;20064;-68
2022/06/16 08:12:11;;;;;;;29.90;5.43;;;;;;;37.67;42.08;97348.94;4853999;29;20057;-69
2022/06/16 08:15:01;;;;;;;33.72;5.72;;;;;;;37.86;41.42;97351.03;4854932;29;20057;-69
2022/06/16 08:17:58;;;;;;;32.35;5.28;;;;;;;37.54;43.48;97342.84;4845659;29;20138;-69
2022/06/16 08:20:47;;;;;;;26.30;5.45;;;;;;;37.45;42.51;97333.59;4835882;29;20050;-70
2022/06/16 08:23:36;;;;;;;24.52;5.15;;;;;;;37.60;42.48;97326.81;4837001;29;20342;-69
2022/06/16 08:26:26;;;;;;;36.42;5.85;;;;;;;37.53;43.87;97319.72;4852222;29;20565;-69
2022/06/16 08:29:09;;;;;;;;;;;;;;;37.74;42.76;97319.97;4873490;29;20044;-68
2022/06/16 08:32:04;;;;;;;29.70;5.32;;;;;;;37.74;43.28;97326.19;4875678;29;20617;-69
2022/06/16 08:34:53;;;;;;;24.95;5.75;;;;;;;37.69;42.23;97323.41;4873206;29;20457;-69
2022/06/16 08:37:47;;;;;;;32.13;5.43;;;;;;;37.58;42.11;97313.59;4873199;29;20474;-68
2022/06/16 08:40:34;;;;;;;20.48;4.90;;;;;;;37.65;45.78;97299.97;4872550;29;20555;-69
2022/06/16 08:43:35;;;;;;;26.33;5.45;;;;;;;37.61;43.18;97296.97;4857319;29;20565;-69
2022/06/16 08:46:33;;;;;;;17.17;4.38;;;;;;;37.69;42.96;97279.56;4853938;29;20492;-69
2022/06/16 08:49:33;;;;;;;22.90;4.82;;;;;;;37.78;45.29;97283.44;4854022;29;20050;-68
2022/06/16 08:52:44;;;;;;;16.73;3.90;;;;;;;37.58;41.27;97288.59;4853473;29;20073;-69
2022/06/16 08:56:02;;;;;;;29.50;5.95;;;;;;;37.71;43.10;97285.53;4854072;29;20461;-70
2022/06/16 08:59:13;;;;;;;18.17;4.38;;;;;;;37.71;41.54;97266.69;4842916;29;20057;-68
2022/06/16 09:02:13;;;;;;;35.38;5.20;;;;;;;37.86;41.41;97273.03;4851396;29;20081;-69
2022/06/16 09:05:14;;;;;;;31.00;5.20;;;;;;;37.55;42.10;97263.00;4852294;29;20052;-69
2022/06/16 09:08:15;;;;;;;26.92;5.82;;;;;;;37.60;41.91;97255.03;4852465;29;20081;-69
2022/06/16 09:11:16;;;;;;;33.83;6.38;;;;;;;37.62;43.25;97247.53;4851766;29;20056;-69
2022/06/16 09:15:11;;;;;;;26.50;4.75;;;;;;;37.51;42.23;97246.59;4850665;29;20049;-69
2022/06/16 09:18:43;;;;;;;29.63;6.22;;;;;;;37.92;43.36;97249.69;4820643;29;20042;-69
2022/06/16 09:21:21;;;;;;;31.42;4.90;;;;;;;37.84;43.59;97242.06;4822165;29;20058;-69
2022/06/16 09:24:29;;;;;;;24.63;5.03;;;;;;;37.69;42.09;97231.19;4852889;29;20144;-69
2022/06/16 09:27:16;;;;;;;36.05;5.53;;;;;;;37.59;42.47;97237.28;4853171;29;20140;-69
2022/06/16 09:30:16;;;;;;;39.78;6.68;;;;;;;37.46;43.04;97213.44;4852111;29;20105;-68
2022/06/16 09:33:10;;;;;;;19.08;5.05;;;;;;;37.69;46.47;97215.84;4854084;29;20125;-69
2022/06/16 09:36:01;;;;;;;35.15;5.28;;;;;;;37.74;46.73;97215.91;4865502;29;20065;-68
2022/06/16 09:39:01;;;;;;;45.67;6.60;;;;;;;37.73;42.78;97210.78;4848694;29;20076;-69
2022/06/16 09:45:34;;;;;;;32.72;5.70;;;;;;;37.66;43.72;97194.88;4851973;29;20117;-69
2022/06/16 09:49:04;;;;;;;27.15;4.97;;;;;;;37.75;45.64;97197.91;4861281;29;20057;-69
2022/06/16 09:51:58;;;;;;;32.35;5.32;;;;;;;37.57;44.64;97200.94;4865410;29;20112;-68
2022/06/16 09:54:56;;;;;;;30.35;5.90;;;;;;;37.40;45.23;97195.66;4871586;29;20460;-69
2022/06/16 09:57:56;;;;;;;25.70;5.88;;;;;;;37.29;45.37;97188.53;4871531;29;20156;-68
2022/06/16 10:00:35;;;;;;;29.85;6.18;;;;;;;37.36;45.38;97173.84;4871736;29;20136;-69
2022/06/16 10:03:53;;;;;;;33.45;6.40;;;;;;;37.48;46.21;97174.50;4871480;29;20733;-69
2022/06/16 10:07:02;;;;;;;35.28;5.80;;;;;;;37.50;43.98;97164.31;4863666;29;20069;-69
2022/06/16 10:10:05;;;;;;;34.88;6.65;;;;;;;37.48;45.94;97160.25;4871743;29;20052;-69
2022/06/16 10:13:13;;;;;;;37.25;5.53;;;;;;;37.53;46.59;97154.91;4871362;29;20041;-70
2022/06/16 10:16:17;;;;;;;41.22;5.97;;;;;;;37.63;45.16;97157.72;4871274;29;20184;-69
2022/06/16 10:19:08;;;;;;;29.40;5.93;;;;;;;37.69;44.30;97151.31;4870587;29;20530;-69
2022/06/16 10:22:05;;;;;;;29.23;5.68;;;;;;;37.66;45.64;97151.03;4861261;29;20490;-69
2022/06/16 10:24:53;;;;;;;32.25;5.97;;;;;;;37.60;44.54;97141.31;4852633;29;20468;-69
2022/06/16 10:28:04;;;;;;;39.75;6.57;;;;;;;37.64;44.05;97143.22;4852673;29;20049;-68
2022/06/16 10:30:40;;;;;;;37.63;5.85;;;;;;;37.63;45.52;97136.22;4852701;29;20057;-69
2022/06/16 10:33:39;;;;;;;;;;;;;;;37.57;44.89;97126.47;4854076;29;20113;-69
2022/06/16 10:36:28;;;;;;;33.72;5.78;;;;;;;37.60;47.26;97125.97;4852254;29;19935;-70
2022/06/16 10:39:27;;;;;;;33.67;6.65;;;;;;;37.54;46.04;97118.91;4835985;29;20053;-68
2022/06/16 10:42:27;;;;;;;24.13;6.43;;;;;;;37.60;45.36;97122.50;4852297;29;20072;-69
2022/06/16 10:45:25;;;;;;;42.92;7.55;;;;;;;37.63;44.83;97113.91;4851536;29;20057;-69
2022/06/16 10:48:34;;;;;;;37.70;6.78;;;;;;;37.60;44.44;97109.84;4851955;29;20049;-69
2022/06/16 10:51:21;;;;;;;31.90;6.22;;;;;;;37.50;44.96;97105.19;4852184;29;20063;-69
2022/06/16 10:54:32;;;;;;;35.35;5.63;;;;;;;37.48;46.20;97095.75;4852067;29;20125;-71
2022/06/16 10:57:14;;;;;;;23.23;5.75;;;;;;;37.49;45.63;97090.13;4851988;29;20065;-70
2022/06/16 11:00:14;;;;;;;43.05;7.57;;;;;;;37.60;45.60;97080.25;4852691;29;20061;-71
2022/06/16 11:03:11;;;;;;;30.33;5.68;;;;;;;37.65;46.80;97080.31;4852474;29;20055;-70
2022/06/16 11:06:01;;;;;;;30.80;5.90;;;;;;;37.57;46.79;97075.38;4852280;29;20102;-72
2022/06/16 11:08:49;;;;;;;;;;;;;;;37.55;46.30;97075.63;4836161;29;20053;-70
2022/06/16 11:11:54;;;;;;;23.58;6.22;;;;;;;37.62;46.14;97075.44;4852099;29;19956;-72
2022/06/16 11:14:49;;;;;;;32.92;7.28;;;;;;;37.58;46.46;97068.13;4835293;29;20065;-70
2022/06/16 11:17:46;;;;;;;30.17;6.50;;;;;;;37.50;44.65;97064.88;4864536;29;20049;-70
2022/06/16 11:20:50;;;;;;;33.05;7.43;;;;;;;37.68;44.98;97062.84;4851358;29;20548;-72
2022/06/16 11:23:41;;;;;;;38.78;6.38;;;;;;;37.61;45.70;97067.63;4851697;29;20065;-72
2022/06/16 11:26:37;;;;;;;29.30;5.80;;;;;;;37.67;44.50;97054.00;4851936;29;20423;-70
2022/06/16 11:29:29;;;;;;;38.03;5.65;;;;;;;37.60;45.59;97049.91;4851731;29;20087;-71
2022/06/16 11:32:31;;;;;;;28.98;6.03;;;;;;;37.55;46.49;97058.69;4853330;29;20355;-71
2022/06/16 11:35:19;;;;;;;33.92;5.55;;;;;;;37.48;46.72;97058.94;4857079;29;20067;-71
2022/06/16 11:38:42;;;;;;;32.60;6.22;;;;;;;37.47;47.00;97062.69;4851195;29;20053;-71
2022/06/16 11:41:21;;;;;;;52.78;9.23;;;;;;;37.43;46.49;97045.47;4851069;29;20215;-70
2022/06/16 11:44:48;;;;;;;38.88;6.50;;;;;;;37.43;47.07;97042.78;4851496;29;20117;-71
2022/06/16 11:48:02;;;;;;;30.85;6.93;;;;;;;37.37;48.52;97035.72;4815020;29;20662;-71
2022/06/16 11:51:10;;;;;;;34.80;6.50;;;;;;;37.47;46.60;97032.28;4869587;29;20072;-71
2022/06/16 11:54:29;;;;;;;29.30;6.03;;;;;;;37.40;46.83;97018.28;4870368;29;20145;-72
2022/06/16 11:57:41;;;;;;;47.70;6.50;;;;;;;37.35;46.28;97021.75;4870308;29;20097;-71
2022/06/16 12:00:50;;;;;;;26.55;6.20;;;;;;;37.31;47.47;97009.88;4871275;29;20053;-70
2022/06/16 12:03:57;;;;;;;41.95;7.00;;;;;;;37.44;45.94;97004.03;4870078;29;20062;-72
2022/06/16 12:07:03;;;;;;;38.97;6.13;;;;;;;37.31;48.69;96999.13;4851254;29;20053;-70
2022/06/16 12:10:24;;;;;;;34.88;6.85;;;;;;;37.24;47.67;97003.91;4851357;29;20061;-69
2022/06/16 12:13:18;;;;;;;31.17;6.40;;;;;;;37.29;47.13;96989.69;4851663;29;20060;-71
2022/06/16 12:16:44;;;;;;;32.47;6.20;;;;;;;37.29;46.57;96989.69;4852640;29;20562;-70
2022/06/16 12:19:45;;;;;;;45.50;7.28;;;;;;;37.20;48.09;96986.66;4853890;29;20125;-70
2022/06/16 12:23:00;;;;;;;34.58;6.88;;;;;;;37.20;47.90;96984.00;4854618;29;20049;-70
2022/06/16 12:26:02;;;;;;;46.33;6.50;;;;;;;37.21;46.95;96980.22;4849404;29;20461;-71
2022/06/16 12:28:59;;;;;;;50.17;7.95;;;;;;;37.24;47.25;96976.22;4851777;29;20072;-71
2022/06/16 12:32:11;;;;;;;54.90;8.90;;;;;;;37.24;46.63;96976.22;4854455;29;20359;-72
2022/06/16 12:35:04;;;;;;;58.60;6.97;;;;;;;37.20;47.64;96973.25;4854415;29;20098;-70
2022/06/16 12:38:22;;;;;;;36.75;7.63;;;;;;;37.05;48.29;96967.72;4861929;29;20045;-72
2022/06/16 12:41:26;;;;;;;38.70;9.20;;;;;;;36.98;48.87;96962.56;4860070;29;20065;-70
2022/06/16 12:44:22;;;;;;;43.70;7.13;;;;;;;36.90;48.30;96959.53;4854013;29;20392;-71
2022/06/16 12:47:17;;;;;;;46.70;7.82;;;;;;;36.97;48.41;96954.75;4854674;29;20049;-70
2022/06/16 12:50:09;;;;;;;42.70;7.43;;;;;;;36.95;47.39;96959.59;4848303;29;20740;-72
2022/06/16 12:53:18;;;;;;;45.83;7.47;;;;;;;36.99;47.46;96958.81;4835983;29;20072;-71
2022/06/16 12:56:15;;;;;;;32.60;6.25;;;;;;;36.88;47.38;96959.78;4835683;29;20064;-70
2022/06/16 12:59:03;;;;;;;39.55;6.05;;;;;;;36.90;47.91;96964.91;4835730;29;20054;-71
2022/06/16 13:01:58;;;;;;;39.80;6.10;;;;;;;36.93;47.66;96953.66;4835674;29;20073;-69
2022/06/16 13:04:42;;;;;;;42.88;7.20;;;;;;;36.98;47.94;96951.00;4837541;29;20046;-69
2022/06/16 13:07:36;;;;;;;26.58;6.70;;;;;;;36.82;50.38;96957.31;4854120;29;20046;-70
2022/06/16 13:10:19;;;;;;;46.88;6.63;;;;;;;36.72;49.63;96966.09;4853506;29;20065;-72
2022/06/16 13:13:07;;;;;;;55.08;8.77;;;;;;;36.64;50.33;96966.56;4854344;29;20126;-70
2022/06/16 13:16:01;;;;;;;48.22;7.55;;;;;;;36.58;50.06;96962.16;4852994;29;20069;-72
2022/06/16 13:19:02;;;;;;;50.40;7.13;;;;;;;36.60;49.36;96962.72;4852903;29;20076;-70
2022/06/16 13:21:57;;;;;;;54.55;7.32;;;;;;;36.68;49.02;96973.84;4867601;29;20045;-69
2022/06/16 13:25:04;;;;;;;54.30;6.38;;;;;;;36.74;47.84;96977.38;4853886;29;20078;-68
2022/06/16 13:27:55;;;;;;;46.90;7.40;;;;;;;36.72;47.46;96974.97;4853031;29;20538;-66
2022/06/16 13:30:47;;;;;;;42.72;8.02;;;;;;;36.72;48.26;96969.59;4835139;29;20050;-71
2022/06/16 13:33:47;;;;;;;55.85;7.63;;;;;;;36.58;48.51;96972.91;4848200;29;20141;-67
2022/06/16 13:36:39;;;;;;;39.78;7.63;;;;;;;36.43;49.16;96976.25;4853442;29;20156;-69
2022/06/16 13:39:54;;;;;;;59.28;7.50;;;;;;;36.63;48.37;96984.53;4853389;29;20053;-68
2022/06/16 13:42:58;;;;;;;34.22;7.00;;;;;;;36.41;49.21;96994.47;4852535;29;20046;-68
2022/06/16 13:45:52;;;;;;;63.50;10.35;;;;;;;36.27;49.52;96990.56;4853395;29;20627;-67
2022/06/16 13:48:55;;;;;;;37.60;7.05;;;;;;;36.23;49.57;96997.50;4853465;29;20053;-67
2022/06/16 13:51:44;;;;;;;40.53;6.55;;;;;;;36.18;49.28;96997.38;4867482;29;20467;-65
2022/06/16 13:54:39;;;;;;;35.05;7.07;;;;;;;36.20;49.20;97004.16;4853873;29;20493;-69
2022/06/16 13:57:26;;;;;;;39.53;6.97;;;;;;;36.14;49.54;97010.50;4866048;29;20053;-67
2022/06/16 14:00:40;;;;;;;33.92;6.25;;;;;;;36.16;49.63;97012.94;4853176;29;20057;-68
2022/06/16 14:03:26;;;;;;;45.55;7.07;;;;;;;36.02;50.37;97015.16;4853066;29;20481;-67
2022/06/16 14:06:19;;;;;;;37.78;6.65;;;;;;;35.89;52.03;97011.00;4851902;29;20053;-68
2022/06/16 14:09:21;;;;;;;39.83;7.80;;;;;;;35.80;50.84;97014.34;4864517;29;20045;-68